Time;durP1;ratioP1;P1;durP2;ratioP2;P2;SDS_P1;SDS_P2;PMS_P1;PMS_P2;Temp;Humidity;BMP_temperature;BMP_pressure;BME280_temperature;BME280_humidity;BME280_pressure;Samples;Min_cycle;Max_cycle;Signal;HPM_P1;HPM_P2
2021/11/23 00:01:25;;;;;;;2.08;0.25;;;20.80;62.90;;;;;;6163527;23;20000;-70
2021/11/23 00:03:51;;;;;;;0.60;0.20;;;20.80;62.90;;;;;;6163295;23;20084;-70
2021/11/23 00:06:16;;;;;;;1.65;0.30;;;20.80;62.90;;;;;;6188360;23;20032;-71
2021/11/23 00:08:42;;;;;;;0.63;0.20;;;20.80;62.90;;;;;;6163323;23;20004;-71
2021/11/23 00:11:08;;;;;;;0.22;0.22;;;20.80;63.00;;;;;;6214155;23;20338;-71
2021/11/23 00:13:33;;;;;;;1.10;0.40;;;20.80;63.00;;;;;;6214548;23;20495;-71
2021/11/23 00:15:59;;;;;;;0.35;0.20;;;20.80;62.90;;;;;;6188073;23;20001;-71
2021/11/23 00:18:25;;;;;;;0.82;0.30;;;20.80;62.90;;;;;;6214608;23;20440;-71
2021/11/23 00:20:50;;;;;;;0.17;0.13;;;20.80;63.00;;;;;;6187940;23;20027;-71
2021/11/23 00:23:16;;;;;;;0.40;0.25;;;20.90;63.00;;;;;;6188029;23;20043;-71
2021/11/23 00:25:42;;;;;;;0.20;0.10;;;20.90;63.00;;;;;;6187404;23;19997;-71
2021/11/23 00:28:08;;;;;;;1.08;0.40;;;20.90;63.00;;;;;;6163406;23;20000;-71
2021/11/23 00:30:34;;;;;;;7.00;0.25;;;20.90;63.00;;;;;;6214470;23;20005;-71
2021/11/23 00:33:00;;;;;;;1.00;0.28;;;20.90;63.00;;;;;;6162858;23;20009;-70
2021/11/23 00:35:26;;;;;;;0.68;0.20;;;20.90;63.00;;;;;;6214632;23;20005;-70
2021/11/23 00:37:52;;;;;;;1.55;0.20;;;20.90;63.00;;;;;;6163184;23;20008;-71
2021/11/23 00:40:18;;;;;;;0.57;0.30;;;20.90;63.00;;;;;;6163064;23;20028;-70
2021/11/23 00:42:44;;;;;;;0.20;0.13;;;20.90;63.00;;;;;;6188190;23;20047;-70
2021/11/23 00:45:10;;;;;;;0.50;0.28;;;20.90;63.00;;;;;;6214572;23;20386;-70
2021/11/23 00:47:36;;;;;;;0.50;0.30;;;20.90;63.00;;;;;;6188154;23;20029;-71
2021/11/23 00:50:02;;;;;;;0.93;0.30;;;20.90;63.00;;;;;;6214243;23;20043;-71
2021/11/23 00:52:28;;;;;;;0.30;0.17;;;20.90;63.00;;;;;;6163259;23;20401;-71
2021/11/23 00:54:53;;;;;;;0.73;0.20;;;20.90;63.00;;;;;;6187551;23;20032;-71
2021/11/23 00:57:19;;;;;;;0.55;0.22;;;20.80;63.00;;;;;;6214446;23;20004;-71
2021/11/23 00:59:45;;;;;;;0.85;0.20;;;20.90;63.00;;;;;;6187832;23;20067;-71
2021/11/23 01:02:11;;;;;;;0.40;0.30;;;20.90;63.10;;;;;;6214220;23;20375;-70
2021/11/23 01:04:37;;;;;;;1.50;0.22;;;20.90;63.00;;;;;;6214347;23;20064;-70
2021/11/23 01:07:02;;;;;;;1.08;0.20;;;20.90;63.10;;;;;;6164541;23;20417;-70
2021/11/23 01:09:28;;;;;;;0.50;0.30;;;20.90;63.10;;;;;;6215936;23;20047;-71
2021/11/23 01:11:54;;;;;;;0.17;0.10;;;20.90;63.10;;;;;;6189511;23;20047;-71
2021/11/23 01:14:20;;;;;;;0.47;0.30;;;20.90;63.10;;;;;;6216084;23;20059;-71
2021/11/23 01:16:47;;;;;;;0.65;0.22;;;20.90;63.10;;;;;;6216294;23;20079;-71
2021/11/23 01:19:14;;;;;;;0.60;0.25;;;20.90;63.20;;;;;;6190033;23;20008;-71
2021/11/23 01:21:41;;;;;;;0.55;0.50;;;20.90;63.20;;;;;;6189485;23;20127;-71
2021/11/23 01:24:07;;;;;;;1.08;0.20;;;20.90;63.20;;;;;;6164536;23;20087;-71
2021/11/23 01:26:32;;;;;;;0.35;0.10;;;20.90;64.20;;;;;;6189527;23;20040;-71
2021/11/23 01:28:58;;;;;;;0.30;0.10;;;20.90;63.20;;;;;;6216009;23;20344;-71
2021/11/23 01:31:24;;;;;;;0.50;0.20;;;20.90;63.20;;;;;;6189778;23;20024;-71
2021/11/23 01:33:49;;;;;;;0.70;0.30;;;20.90;63.20;;;;;;6215983;23;20001;-71
2021/11/23 01:36:15;;;;;;;0.95;0.32;;;20.90;63.20;;;;;;6189445;23;20004;-71
2021/11/23 01:38:41;;;;;;;0.40;0.40;;;20.90;63.20;;;;;;6215604;23;20008;-71
2021/11/23 01:41:07;;;;;;;1.15;0.30;;;20.90;63.20;;;;;;6215975;23;20005;-71
2021/11/23 01:43:33;;;;;;;0.30;0.20;;;20.90;63.20;;;;;;6189443;23;20495;-71
2021/11/23 01:45:59;;;;;;;3.03;0.47;;;20.90;63.20;;;;;;6189392;23;20020;-71
2021/11/23 01:48:24;;;;;;;0.40;0.20;;;20.90;63.20;;;;;;6189441;23;20001;-71
2021/11/23 01:50:50;;;;;;;0.85;0.20;;;20.90;63.20;;;;;;6164544;23;20005;-71
2021/11/23 01:53:16;;;;;;;0.50;0.30;;;20.90;63.20;;;;;;6164280;23;20004;-71
2021/11/23 01:55:42;;;;;;;0.95;0.43;;;20.90;63.20;;;;;;6139841;23;20058;-71
2021/11/23 01:58:09;;;;;;;0.30;0.15;;;20.90;63.20;;;;;;6189322;23;20001;-71
2021/11/23 02:00:35;;;;;;;0.38;0.15;;;20.90;63.20;;;;;;6215785;23;20138;-71
2021/11/23 02:03:00;;;;;;;1.35;0.45;;;20.90;63.30;;;;;;6189127;23;20036;-71
2021/11/23 02:05:26;;;;;;;0.38;0.30;;;20.90;63.20;;;;;;6189439;23;20004;-71
2021/11/23 02:07:52;;;;;;;0.38;0.30;;;20.90;63.30;;;;;;6188983;23;20511;-71
2021/11/23 02:10:17;;;;;;;0.63;0.22;;;20.90;63.30;;;;;;6189138;23;20005;-71
2021/11/23 02:12:43;;;;;;;0.85;0.20;;;20.90;63.30;;;;;;6215803;23;20005;-71
2021/11/23 02:15:10;;;;;;;0.98;0.20;;;20.90;63.30;;;;;;6188996;23;20395;-71
2021/11/23 02:17:35;;;;;;;0.30;0.20;;;20.90;63.30;;;;;;6189256;23;20007;-71
2021/11/23 02:20:02;;;;;;;0.68;0.17;;;20.90;63.30;;;;;;6164253;23;20005;-71
2021/11/23 02:22:28;;;;;;;0.60;0.22;;;20.90;63.30;;;;;;6215050;23;20055;-71
2021/11/23 02:24:54;;;;;;;1.02;0.30;;;20.90;63.30;;;;;;6189067;23;20000;-71
2021/11/23 02:27:21;;;;;;;0.40;0.20;;;20.90;63.40;;;;;;6215272;23;20009;-71
2021/11/23 02:29:46;;;;;;;0.55;0.20;;;20.90;63.30;;;;;;6215773;23;20020;-71
2021/11/23 02:32:12;;;;;;;0.20;0.20;;;20.90;63.40;;;;;;6188943;23;20001;-70
2021/11/23 02:34:37;;;;;;;0.73;0.20;;;20.90;63.40;;;;;;6189027;23;20047;-70
2021/11/23 02:37:03;;;;;;;0.57;0.20;;;20.90;63.40;;;;;;6188482;23;20072;-70
2021/11/23 02:39:29;;;;;;;1.83;0.30;;;20.90;63.40;;;;;;6215486;23;20405;-70
2021/11/23 02:41:55;;;;;;;0.45;0.25;;;20.90;63.40;;;;;;6188976;23;20009;-70
2021/11/23 02:44:20;;;;;;;0.28;0.20;;;20.90;63.30;;;;;;6188712;23;20001;-70
2021/11/23 02:46:46;;;;;;;0.32;0.30;;;20.90;63.40;;;;;;6188979;23;20016;-70
2021/11/23 02:49:13;;;;;;;0.70;0.30;;;20.90;63.40;;;;;;6163936;23;19996;-71
2021/11/23 02:51:39;;;;;;;0.20;0.20;;;20.90;63.40;;;;;;6214780;23;20001;-71
2021/11/23 02:54:04;;;;;;;0.30;0.20;;;20.90;63.40;;;;;;6215209;23;20079;-71
2021/11/23 02:56:30;;;;;;;1.02;0.20;;;20.90;63.40;;;;;;6215197;23;20034;-71
2021/11/23 02:58:56;;;;;;;0.50;0.10;;;20.90;63.40;;;;;;6188805;23;20067;-71
2021/11/23 03:01:24;;;;;;;0.22;0.20;;;21.00;63.50;;;;;;6188785;23;20079;-71
2021/11/23 03:03:50;;;;;;;2.05;0.20;;;20.90;63.40;;;;;;6215075;23;20091;-71
2021/11/23 03:06:17;;;;;;;2.53;0.22;;;20.90;63.50;;;;;;6163921;23;20075;-71
2021/11/23 03:08:47;;;;;;;0.82;0.30;;;20.90;63.50;;;;;;6215222;23;20001;-71
2021/11/23 03:11:13;;;;;;;2.60;0.30;;;20.90;63.40;;;;;;6188545;23;20083;-71
2021/11/23 03:13:39;;;;;;;0.55;0.20;;;21.00;63.50;;;;;;6188752;23;20074;-71
2021/11/23 03:16:05;;;;;;;1.27;0.30;;;21.00;63.50;;;;;;6215110;23;20008;-71
2021/11/23 03:18:31;;;;;;;0.57;0.28;;;20.90;63.50;;;;;;6163650;23;20013;-71
2021/11/23 03:20:56;;;;;;;0.57;0.40;;;20.90;63.40;;;;;;6188091;23;20009;-71
2021/11/23 03:23:22;;;;;;;1.67;0.20;;;21.00;63.50;;;;;;6214822;23;20001;-71
2021/11/23 03:25:48;;;;;;;1.60;0.20;;;20.90;63.40;;;;;;6214607;23;20004;-71
2021/11/23 03:28:14;;;;;;;1.65;0.30;;;20.90;63.50;;;;;;6187980;23;20005;-71
2021/11/23 03:30:39;;;;;;;0.52;0.20;;;20.90;63.50;;;;;;6188635;23;20608;-71
2021/11/23 03:33:06;;;;;;;1.25;0.47;;;21.00;63.50;;;;;;6214740;23;20348;-71
2021/11/23 03:35:33;;;;;;;0.57;0.30;;;21.00;63.50;;;;;;6188132;23;20053;-71
2021/11/23 03:37:59;;;;;;;0.93;0.25;;;21.00;63.50;;;;;;6164055;23;20032;-71
2021/11/23 03:40:27;;;;;;;2.80;0.52;;;21.00;63.50;;;;;;6188220;23;20012;-71
2021/11/23 03:42:54;;;;;;;1.17;0.32;;;20.90;63.50;;;;;;6214707;23;20035;-71
2021/11/23 03:45:20;;;;;;;1.10;0.32;;;21.00;63.50;;;;;;6188641;23;20007;-71
2021/11/23 03:47:46;;;;;;;0.40;0.22;;;20.90;63.50;;;;;;6163918;23;20005;-71
2021/11/23 03:50:13;;;;;;;0.35;0.10;;;21.00;63.60;;;;;;6214244;23;20003;-71
2021/11/23 03:52:39;;;;;;;0.60;0.20;;;21.00;63.50;;;;;;6188567;23;20020;-71
2021/11/23 03:55:06;;;;;;;0.30;0.22;;;21.00;63.50;;;;;;6188207;23;20000;-71
2021/11/23 03:57:31;;;;;;;0.60;0.30;;;20.90;63.50;;;;;;6214976;23;20008;-71
2021/11/23 03:59:57;;;;;;;0.50;0.30;;;20.90;63.50;;;;;;6214761;23;20005;-71
2021/11/23 04:02:24;;;;;;;0.50;0.20;;;20.90;63.50;;;;;;6188081;23;20003;-71
2021/11/23 04:04:49;;;;;;;0.10;0.10;;;21.00;63.60;;;;;;6187971;23;20443;-71
2021/11/23 04:07:15;;;;;;;0.38;0.20;;;20.90;63.50;;;;;;6188031;23;20004;-71
2021/11/23 04:09:41;;;;;;;0.75;0.20;;;20.90;63.50;;;;;;6188202;23;20004;-71
2021/11/23 04:12:08;;;;;;;0.40;0.20;;;20.90;63.50;;;;;;6214746;23;20051;-71
2021/11/23 04:14:33;;;;;;;0.95;0.35;;;20.90;63.50;;;;;;6188327;23;20005;-71
2021/11/23 04:16:59;;;;;;;0.70;0.30;;;20.90;63.60;;;;;;6214513;23;20005;-71
2021/11/23 04:19:25;;;;;;;0.77;0.20;;;20.90;63.60;;;;;;6187754;23;20388;-71
2021/11/23 04:21:50;;;;;;;0.30;0.30;;;20.90;63.60;;;;;;6214405;23;20070;-71
2021/11/23 04:24:16;;;;;;;0.55;0.22;;;20.90;63.60;;;;;;6214260;23;20001;-71
2021/11/23 04:26:42;;;;;;;0.90;0.20;;;20.90;63.60;;;;;;6214421;23;20063;-71
2021/11/23 04:29:07;;;;;;;1.02;0.20;;;20.90;63.60;;;;;;6187742;23;20005;-71
2021/11/23 04:31:33;;;;;;;2.15;0.30;;;20.90;63.60;;;;;;6188067;23;20003;-71
2021/11/23 04:33:59;;;;;;;0.17;0.10;;;20.90;63.60;;;;;;6214229;23;20001;-71
2021/11/23 04:36:24;;;;;;;1.23;0.28;;;20.90;63.60;;;;;;6214332;23;20084;-71
2021/11/23 04:38:50;;;;;;;2.65;0.38;;;20.90;63.60;;;;;;6214479;23;20019;-71
2021/11/23 04:41:16;;;;;;;0.50;0.30;;;20.90;63.60;;;;;;6216032;23;20444;-71
2021/11/23 04:43:41;;;;;;;0.50;0.20;;;20.90;63.60;;;;;;6189998;23;20007;-71
2021/11/23 04:46:07;;;;;;;0.52;0.20;;;20.90;63.60;;;;;;6216507;23;20001;-71
2021/11/23 04:48:32;;;;;;;1.67;0.20;;;20.90;63.60;;;;;;6215989;23;20001;-71
2021/11/23 04:50:58;;;;;;;0.30;0.20;;;20.90;63.60;;;;;;6189901;23;20008;-71
2021/11/23 04:53:24;;;;;;;0.52;0.20;;;20.90;63.70;;;;;;6189941;23;20004;-71
2021/11/23 04:55:50;;;;;;;0.77;0.30;;;20.90;63.60;;;;;;6189925;23;20344;-71
2021/11/23 04:58:16;;;;;;;1.77;0.25;;;20.90;63.60;;;;;;6216317;23;20408;-71
2021/11/23 05:00:41;;;;;;;0.40;0.25;;;20.90;63.70;;;;;;6165325;23;20001;-71
2021/11/23 05:03:07;;;;;;;0.70;0.20;;;20.90;63.70;;;;;;6189326;23;20028;-71
2021/11/23 05:05:33;;;;;;;2.50;0.38;;;20.90;63.70;;;;;;6216149;23;19996;-70
2021/11/23 05:07:58;;;;;;;0.45;0.22;;;20.90;63.70;;;;;;6190042;23;20384;-71
2021/11/23 05:10:24;;;;;;;1.83;0.40;;;20.90;63.70;;;;;;6189820;23;20008;-71
2021/11/23 05:12:50;;;;;;;1.40;0.40;;;20.90;63.70;;;;;;6188511;23;20040;-71
2021/11/23 05:15:15;;;;;;;2.92;0.47;;;20.90;63.70;;;;;;6188935;23;20007;-71
2021/11/23 05:17:41;;;;;;;0.60;0.20;;;20.90;63.60;;;;;;6188898;23;20042;-71
2021/11/23 05:20:07;;;;;;;9.27;0.40;;;20.90;63.70;;;;;;6189040;23;20019;-70
2021/11/23 05:22:33;;;;;;;2.33;0.28;;;20.90;63.70;;;;;;6164110;23;20047;-71
2021/11/23 05:24:59;;;;;;;0.63;0.20;;;20.90;63.50;;;;;;6215573;23;19997;-71
2021/11/23 05:27:24;;;;;;;0.73;0.20;;;20.80;63.50;;;;;;6189117;23;20009;-71
2021/11/23 05:29:50;;;;;;;1.80;0.38;;;20.80;63.60;;;;;;6215731;23;20005;-71
2021/11/23 05:32:16;;;;;;;0.60;0.20;;;20.80;63.60;;;;;;6215584;23;20004;-71
2021/11/23 05:34:41;;;;;;;0.88;0.15;;;20.80;63.60;;;;;;6190405;23;20001;-71
2021/11/23 05:37:07;;;;;;;0.20;0.10;;;20.80;63.60;;;;;;6190226;23;20009;-71
2021/11/23 05:39:32;;;;;;;0.50;0.15;;;20.80;63.60;;;;;;6189877;23;20063;-71
2021/11/23 05:41:58;;;;;;;0.73;0.10;;;20.80;63.60;;;;;;6216448;23;20012;-71
2021/11/23 05:44:23;;;;;;;0.80;0.15;;;20.80;63.60;;;;;;6216227;23;20029;-71
2021/11/23 05:46:49;;;;;;;0.85;0.20;;;20.80;63.60;;;;;;6190034;23;20005;-71
2021/11/23 05:49:16;;;;;;;0.63;0.17;;;20.80;63.60;;;;;;6216481;23;20418;-71
2021/11/23 05:51:43;;;;;;;0.57;0.30;;;20.90;63.60;;;;;;6216020;23;20007;-71
2021/11/23 05:54:09;;;;;;;1.83;0.30;;;20.80;63.60;;;;;;6189994;23;20008;-71
2021/11/23 05:56:34;;;;;;;0.60;0.30;;;20.80;63.50;;;;;;6216226;23;20004;-71
2021/11/23 05:59:00;;;;;;;2.05;0.40;;;20.80;63.50;;;;;;6215894;23;20077;-71
2021/11/23 06:01:26;;;;;;;0.93;0.20;;;20.90;63.60;;;;;;6216423;23;20005;-71
2021/11/23 06:03:51;;;;;;;3.47;0.60;;;20.90;63.60;;;;;;6189518;23;20047;-71
2021/11/23 06:06:17;;;;;;;0.50;0.20;;;20.90;63.60;;;;;;6189820;23;20127;-71
2021/11/23 06:08:42;;;;;;;1.95;0.20;;;20.80;63.50;;;;;;6216353;23;20072;-71
2021/11/23 06:11:08;;;;;;;1.33;0.30;;;20.90;64.60;;;;;;6189604;23;20432;-71
2021/11/23 06:13:34;;;;;;;0.35;0.20;;;20.90;63.60;;;;;;6189511;23;20001;-71
2021/11/23 06:16:00;;;;;;;0.30;0.10;;;20.90;63.70;;;;;;6189843;23;20004;-71
2021/11/23 06:18:25;;;;;;;1.63;0.20;;;20.90;63.70;;;;;;6215902;23;20008;-71
2021/11/23 06:20:53;;;;;;;1.90;0.30;;;20.90;63.60;;;;;;6189451;23;20432;-71
2021/11/23 06:23:20;;;;;;;1.50;0.32;;;20.90;63.60;;;;;;6165223;23;20012;-71
2021/11/23 06:25:46;;;;;;;0.22;0.22;;;20.90;63.60;;;;;;6215665;23;20008;-71
2021/11/23 06:28:12;;;;;;;0.65;0.30;;;20.90;63.60;;;;;;6189400;23;20032;-71
2021/11/23 06:30:38;;;;;;;0.32;0.10;;;20.90;63.70;;;;;;6189441;23;20035;-71
2021/11/23 06:33:04;;;;;;;0.68;0.22;;;20.90;63.60;;;;;;6216151;23;20004;-71
2021/11/23 06:35:30;;;;;;;0.40;0.20;;;20.80;63.60;;;;;;6216143;23;20005;-71
2021/11/23 06:37:56;;;;;;;0.80;0.30;;;20.90;63.60;;;;;;6216029;23;20451;-71
2021/11/23 06:40:21;;;;;;;0.82;0.20;;;20.90;63.60;;;;;;6189457;23;20000;-71
2021/11/23 06:42:47;;;;;;;0.85;0.30;;;20.90;63.60;;;;;;6189156;23;20005;-71
2021/11/23 06:45:15;;;;;;;3.83;0.45;;;20.90;63.60;;;;;;6216173;23;20000;-71
2021/11/23 06:47:41;;;;;;;0.30;0.20;;;20.90;63.60;;;;;;6190000;23;20004;-71
2021/11/23 06:50:07;;;;;;;0.22;0.15;;;20.90;63.60;;;;;;6164948;23;20011;-71
2021/11/23 06:52:33;;;;;;;0.10;0.10;;;20.90;63.60;;;;;;6189066;23;20000;-71
2021/11/23 06:54:59;;;;;;;0.57;0.45;;;20.80;63.60;;;;;;6164555;23;20039;-71
2021/11/23 06:57:25;;;;;;;5.60;0.43;;;20.90;63.60;;;;;;6188977;23;20024;-71
2021/11/23 06:59:50;;;;;;;0.55;0.28;;;20.80;63.60;;;;;;6189285;23;20005;-71
2021/11/23 07:02:16;;;;;;;1.30;0.35;;;20.90;63.60;;;;;;6189383;23;20055;-71
2021/11/23 07:04:42;;;;;;;0.35;0.20;;;20.80;63.60;;;;;;6188528;23;20007;-71
2021/11/23 07:07:09;;;;;;;0.70;0.30;;;20.80;63.60;;;;;;6189116;23;20059;-72
2021/11/23 07:09:35;;;;;;;0.85;0.30;;;20.80;63.60;;;;;;6188501;23;20022;-72
2021/11/23 07:12:01;;;;;;;0.75;0.45;;;20.80;63.30;;;;;;6214634;23;20001;-72
2021/11/23 07:14:27;;;;;;;0.63;0.20;;;20.80;63.20;;;;;;6214968;23;20580;-72
2021/11/23 07:16:53;;;;;;;0.90;0.40;;;20.70;63.10;;;;;;6188309;23;20000;-72
2021/11/23 07:19:18;;;;;;;0.60;0.30;;;20.70;63.20;;;;;;6215023;23;20503;-72
2021/11/23 07:21:44;;;;;;;0.35;0.30;;;20.70;63.20;;;;;;6163412;23;20035;-71
2021/11/23 07:24:10;;;;;;;0.57;0.30;;;20.60;63.10;;;;;;6188438;23;20064;-71
2021/11/23 07:26:38;;;;;;;0.73;0.30;;;20.70;63.10;;;;;;6187699;23;20016;-71
2021/11/23 07:29:03;;;;;;;0.43;0.30;;;20.60;63.10;;;;;;6214779;23;20023;-71
2021/11/23 07:31:29;;;;;;;1.35;0.20;;;20.60;63.00;;;;;;6213771;23;20448;-71
2021/11/23 07:33:55;;;;;;;0.65;0.28;;;20.60;63.00;;;;;;6186445;23;20079;-71
2021/11/23 07:36:21;;;;;;;0.80;0.28;;;20.60;63.00;;;;;;6186819;23;20005;-71
2021/11/23 07:38:47;;;;;;;3.72;0.38;;;20.60;62.90;;;;;;6213101;23;20461;-71
2021/11/23 07:41:13;;;;;;;1.75;0.40;;;20.50;62.70;;;;;;6186086;23;20001;-71
2021/11/23 07:43:39;;;;;;;0.40;0.30;;;20.60;62.80;;;;;;6213753;23;20008;-72
2021/11/23 07:46:04;;;;;;;1.88;0.35;;;20.50;62.60;;;;;;6214773;23;20043;-72
2021/11/23 07:48:30;;;;;;;11.00;1.70;;;20.50;62.70;;;;;;6214774;23;20072;-71
2021/11/23 07:50:56;;;;;;;8.05;1.92;;;20.50;62.80;;;;;;6214540;23;20001;-72
2021/11/23 07:53:21;;;;;;;7.78;1.30;;;20.60;62.80;;;;;;6188418;23;20047;-71
2021/11/23 07:55:49;;;;;;;8.07;1.30;;;20.60;62.70;;;;;;6214606;23;20005;-72
2021/11/23 07:58:16;;;;;;;7.20;1.70;;;20.60;62.60;;;;;;6214739;23;19997;-72
2021/11/23 08:00:42;;;;;;;4.75;0.90;;;20.60;62.60;;;;;;6163601;23;20011;-72
2021/11/23 08:03:09;;;;;;;5.10;1.67;;;20.60;62.50;;;;;;6214477;23;20009;-72
2021/11/23 08:05:36;;;;;;;6.05;1.50;;;20.60;62.50;;;;;;6188583;23;20080;-72
2021/11/23 08:08:03;;;;;;;6.82;1.40;;;20.60;62.50;;;;;;6163577;23;20371;-72
2021/11/23 08:10:28;;;;;;;5.47;1.10;;;20.50;62.50;;;;;;6214085;23;20023;-72
2021/11/23 08:12:54;;;;;;;2.65;1.05;;;20.50;62.40;;;;;;6186171;23;20441;-72
2021/11/23 08:15:20;;;;;;;4.88;1.20;;;20.60;62.50;;;;;;6214642;23;20001;-72
2021/11/23 08:17:48;;;;;;;4.05;1.30;;;20.50;62.50;;;;;;6187971;23;20001;-71
2021/11/23 08:20:13;;;;;;;6.25;1.38;;;20.50;62.50;;;;;;6188671;23;20005;-71
2021/11/23 08:22:39;;;;;;;4.05;1.20;;;20.50;62.40;;;;;;6214398;23;20028;-71
2021/11/23 08:25:06;;;;;;;7.32;1.52;;;20.50;62.40;;;;;;6214062;23;20455;-71
2021/11/23 08:27:31;;;;;;;5.72;1.30;;;20.50;62.40;;;;;;6187848;23;20013;-71
2021/11/23 08:29:59;;;;;;;5.80;1.50;;;20.50;62.30;;;;;;6214448;23;20000;-71
2021/11/23 08:32:25;;;;;;;3.95;1.10;;;20.50;62.30;;;;;;6214521;23;20066;-72
2021/11/23 08:34:50;;;;;;;5.32;1.17;;;20.50;62.40;;;;;;6163287;23;20000;-72
2021/11/23 08:37:16;;;;;;;7.65;1.20;;;20.50;62.30;;;;;;6188151;23;20011;-71
2021/11/23 08:39:42;;;;;;;4.50;1.17;;;20.50;62.30;;;;;;6214024;23;20428;-72
2021/11/23 08:42:07;;;;;;;7.75;1.42;;;20.50;62.30;;;;;;6187861;23;20015;-71
2021/11/23 08:44:33;;;;;;;4.15;1.40;;;20.50;62.30;;;;;;6214394;23;20028;-71
2021/11/23 08:46:58;;;;;;;3.05;1.23;;;20.50;62.20;;;;;;6187873;23;19996;-72
2021/11/23 08:49:24;;;;;;;6.32;0.98;;;20.50;62.20;;;;;;6214696;23;20043;-72
2021/11/23 08:51:53;;;;;;;1.98;1.08;;;20.40;62.20;;;;;;6214204;23;20084;-71
2021/11/23 08:54:18;;;;;;;2.83;0.70;;;20.50;62.20;;;;;;6213989;23;20012;-71
2021/11/23 08:56:52;;;;;;;4.35;1.13;;;20.40;62.10;;;;;;6187932;23;20462;-72
2021/11/23 08:59:18;;;;;;;3.08;0.98;;;20.50;62.10;;;;;;6214532;23;20000;-72
2021/11/23 09:01:45;;;;;;;5.35;1.10;;;20.50;62.10;;;;;;6214352;23;20000;-72
2021/11/23 09:04:11;;;;;;;4.68;1.27;;;20.50;62.10;;;;;;6214305;23;20456;-71
2021/11/23 09:06:39;;;;;;;5.32;1.05;;;20.40;62.10;;;;;;6214377;23;19996;-71
2021/11/23 09:09:08;;;;;;;4.05;0.93;;;20.40;62.00;;;;;;6187826;23;19996;-72
2021/11/23 09:11:33;;;;;;;3.25;0.95;;;20.40;62.00;;;;;;6214389;23;20007;-72
2021/11/23 09:13:59;;;;;;;2.10;1.05;;;20.40;62.00;;;;;;6214276;23;20076;-72
2021/11/23 09:16:24;;;;;;;3.30;1.00;;;20.40;62.00;;;;;;6214282;23;20051;-72
2021/11/23 09:18:50;;;;;;;4.20;0.80;;;20.40;62.00;;;;;;6214268;23;20344;-71
2021/11/23 09:21:16;;;;;;;4.75;1.10;;;20.40;61.90;;;;;;6163016;23;20031;-72
2021/11/23 09:23:42;;;;;;;1.83;0.85;;;20.40;61.90;;;;;;6162479;23;20001;-72
2021/11/23 09:26:09;;;;;;;3.03;0.73;;;20.40;62.90;;;;;;6214095;23;20012;-71
2021/11/23 09:28:35;;;;;;;2.95;1.00;;;20.40;61.90;;;;;;6215985;23;20444;-71
2021/11/23 09:31:01;;;;;;;3.47;1.10;;;20.40;62.00;;;;;;6189615;23;20001;-71
2021/11/23 09:33:27;;;;;;;1.88;0.75;;;20.40;61.90;;;;;;6189923;23;20008;-71
2021/11/23 09:35:53;;;;;;;3.25;0.95;;;20.40;61.90;;;;;;6215910;23;20004;-71
2021/11/23 09:38:18;;;;;;;1.50;0.77;;;20.40;61.80;;;;;;6189103;23;20010;-71
2021/11/23 09:40:44;;;;;;;2.55;0.80;;;20.40;61.80;;;;;;6216046;23;20071;-72
2021/11/23 09:43:10;;;;;;;2.35;0.90;;;20.40;61.80;;;;;;6215570;23;20028;-72
2021/11/23 09:45:36;;;;;;;2.88;0.60;;;20.40;61.80;;;;;;6215907;23;20028;-72
2021/11/23 09:48:08;;;;;;;1.65;0.70;;;20.40;61.80;;;;;;6189383;23;19997;-71
2021/11/23 09:50:37;;;;;;;2.47;0.80;;;20.40;61.80;;;;;;6215937;23;19997;-72
2021/11/23 09:53:03;;;;;;;0.80;0.50;;;20.40;61.80;;;;;;6188720;23;20000;-71
2021/11/23 09:55:28;;;;;;;1.73;0.73;;;20.40;61.80;;;;;;6189500;23;20012;-72
2021/11/23 09:57:54;;;;;;;3.15;0.70;;;20.40;61.80;;;;;;6215757;23;20011;-72
2021/11/23 10:00:26;;;;;;;4.13;0.80;;;20.40;61.80;;;;;;6215689;23;20032;-71
2021/11/23 10:02:51;;;;;;;1.70;0.75;;;20.40;61.80;;;;;;6215595;23;20001;-71
2021/11/23 10:05:17;;;;;;;2.15;0.85;;;20.40;61.70;;;;;;6189235;23;20008;-72
2021/11/23 10:07:44;;;;;;;2.28;0.60;;;20.40;61.70;;;;;;6188904;23;20001;-72
2021/11/23 10:10:21;;;;;;;2.22;0.55;;;20.40;61.70;;;;;;6189228;23;20001;-71
2021/11/23 10:13:05;;;;;;;1.13;0.60;;;20.40;61.70;;;;;;6189772;23;19997;-71
2021/11/23 10:15:35;;;;;;;1.38;0.70;;;20.40;61.50;;;;;;6189164;23;20000;-72
2021/11/23 10:18:23;;;;;;;1.17;0.30;;;20.40;61.80;;;;;;6189859;23;19997;-72
2021/11/23 10:20:55;;;;;;;1.15;0.50;;;20.40;62.00;;;;;;6188872;23;20008;-71
2021/11/23 10:23:33;;;;;;;2.15;0.50;;;20.40;61.70;;;;;;6189477;23;20476;-71
2021/11/23 10:26:17;;;;;;;1.48;0.50;;;20.40;61.70;;;;;;6215450;23;19997;-71
2021/11/23 10:28:49;;;;;;;0.85;0.55;;;20.40;61.70;;;;;;6215635;23;20075;-71
2021/11/23 10:31:15;;;;;;;1.67;0.68;;;20.40;61.70;;;;;;6215433;23;20000;-72
2021/11/23 10:33:42;;;;;;;1.80;0.50;;;20.40;61.70;;;;;;6215511;23;20447;-72
2021/11/23 10:36:10;;;;;;;1.05;0.40;;;20.40;61.70;;;;;;6189054;23;19997;-71
2021/11/23 10:38:39;;;;;;;2.55;0.55;;;20.40;61.70;;;;;;6189580;23;20004;-72
2021/11/23 10:41:06;;;;;;;1.73;0.50;;;20.40;61.60;;;;;;6189532;23;20001;-71
2021/11/23 10:43:32;;;;;;;0.88;0.52;;;20.40;61.70;;;;;;6188964;23;20011;-71
2021/11/23 10:45:58;;;;;;;1.60;0.70;;;20.40;61.60;;;;;;6139438;23;20009;-72
2021/11/23 10:48:25;;;;;;;0.88;0.40;;;20.30;61.50;;;;;;6215316;23;19997;-71
2021/11/23 10:51:11;;;;;;;2.30;0.68;;;20.40;61.50;;;;;;6139174;23;20348;-72
2021/11/23 10:53:38;;;;;;;1.90;0.57;;;20.40;61.40;;;;;;6165823;23;20004;-71
2021/11/23 10:56:15;;;;;;;1.10;0.70;;;20.40;61.50;;;;;;6164342;23;20387;-72
2021/11/23 10:58:41;;;;;;;1.10;0.40;;;20.40;61.40;;;;;;6188912;23;20007;-72
2021/11/23 11:01:09;;;;;;;2.35;0.70;;;20.30;61.50;;;;;;6164158;23;20052;-71
2021/11/23 11:03:35;;;;;;;1.17;0.50;;;20.30;61.50;;;;;;6214704;23;20027;-71
2021/11/23 11:06:02;;;;;;;0.80;0.50;;;20.30;61.40;;;;;;6188662;23;20492;-71
2021/11/23 11:08:29;;;;;;;1.73;0.50;;;20.30;61.40;;;;;;6164497;23;20038;-72
2021/11/23 11:10:54;;;;;;;0.52;0.40;;;20.30;61.50;;;;;;6188760;23;19996;-71
2021/11/23 11:13:21;;;;;;;1.30;0.45;;;20.30;61.40;;;;;;6188518;23;20005;-71
2021/11/23 11:15:54;;;;;;;1.90;0.75;;;20.30;61.40;;;;;;6188957;23;20001;-72
2021/11/23 11:18:21;;;;;;;;;;;20.40;61.30;;;;;;6188542;23;20005;-71
2021/11/23 11:20:50;;;;;;;1.45;0.50;;;20.30;61.10;;;;;;6188965;23;19900;-72
2021/11/23 11:23:42;;;;;;;1.10;0.50;;;20.30;61.60;;;;;;6214709;23;20004;-71
2021/11/23 11:26:14;;;;;;;0.52;0.30;;;20.30;61.30;;;;;;6166905;23;20016;-71
2021/11/23 11:28:45;;;;;;;1.33;0.35;;;20.30;61.50;;;;;;6189606;23;20004;-71
2021/11/23 11:31:30;;;;;;;2.22;0.50;;;20.30;61.50;;;;;;6214810;23;20083;-72
2021/11/23 11:34:38;;;;;;;0.88;0.50;;;20.30;61.30;;;;;;6188148;23;20051;-72
2021/11/23 11:37:33;;;;;;;0.35;0.30;;;20.30;61.20;;;;;;6214845;23;20389;-72
2021/11/23 11:39:59;;;;;;;1.95;0.50;;;20.30;61.20;;;;;;6211952;23;20013;-71
2021/11/23 11:42:25;;;;;;;1.33;0.40;;;20.30;61.50;;;;;;6188341;23;20087;-71
2021/11/23 11:44:53;;;;;;;2.03;0.50;;;20.30;61.50;;;;;;6214726;23;20424;-71
2021/11/23 11:47:32;;;;;;;0.88;0.40;;;20.30;61.30;;;;;;6188434;23;20035;-71
2021/11/23 11:50:02;;;;;;;1.27;0.60;;;20.30;61.20;;;;;;6188219;23;20039;-71
2021/11/23 11:52:30;;;;;;;0.85;0.30;;;20.30;61.30;;;;;;6214666;23;20001;-71
2021/11/23 11:55:14;;;;;;;0.80;0.40;;;20.30;61.30;;;;;;6188750;23;20055;-71
2021/11/23 11:57:42;;;;;;;0.90;0.30;;;20.30;61.00;;;;;;6214770;23;20005;-71
2021/11/23 12:00:30;;;;;;;1.25;0.30;;;20.30;61.30;;;;;;6214677;23;20007;-71
2021/11/23 12:03:32;;;;;;;1.02;0.40;;;20.30;61.00;;;;;;6214268;23;20005;-71
2021/11/23 12:06:00;;;;;;;0.90;0.40;;;20.30;60.90;;;;;;6187981;23;20440;-71
2021/11/23 12:08:29;;;;;;;1.00;0.50;;;20.30;61.20;;;;;;6214548;23;20000;-71
2021/11/23 12:10:54;;;;;;;0.95;0.40;;;20.30;61.20;;;;;;6214583;23;20452;-72
2021/11/23 12:13:35;;;;;;;0.65;0.20;;;20.30;61.20;;;;;;6188187;23;20005;-71
2021/11/23 12:16:08;;;;;;;0.73;0.25;;;20.30;61.20;;;;;;6187596;23;20083;-71
2021/11/23 12:18:58;;;;;;;1.85;0.45;;;20.30;61.20;;;;;;6188132;23;20432;-71
2021/11/23 12:21:24;;;;;;;0.25;0.20;;;20.30;60.90;;;;;;6199656;23;20008;-71
2021/11/23 12:23:58;;;;;;;0.60;0.30;;;20.30;61.20;;;;;;6188076;23;20100;-72
2021/11/23 12:26:27;;;;;;;0.32;0.22;;;20.30;61.00;;;;;;6162921;23;20017;-72
2021/11/23 12:29:03;;;;;;;0.93;0.40;;;20.30;61.10;;;;;;6188200;23;19997;-71
2021/11/23 12:31:36;;;;;;;0.82;0.30;;;20.30;61.00;;;;;;6187684;23;20076;-71
2021/11/23 12:34:11;;;;;;;0.40;0.30;;;20.30;61.00;;;;;;6188022;23;20431;-71
2021/11/23 12:36:48;;;;;;;0.77;0.50;;;20.30;61.00;;;;;;6214546;23;20474;-72
2021/11/23 12:39:15;;;;;;;0.20;0.20;;;20.30;60.90;;;;;;6187888;23;20007;-72
2021/11/23 12:41:41;;;;;;;0.70;0.35;;;20.30;61.00;;;;;;6214372;23;20005;-71
2021/11/23 12:44:16;;;;;;;0.57;0.20;;;20.30;61.00;;;;;;6187909;23;20007;-71
2021/11/23 12:46:49;;;;;;;0.35;0.30;;;20.40;61.00;;;;;;6214217;23;20001;-71
2021/11/23 12:49:15;;;;;;;0.40;0.30;;;20.30;60.90;;;;;;6189592;23;20004;-71